Terminal Aerodrome Forecast
Issued by NWS

Home | Current Version | Previous Version | Text Only | Print | Product List | Glossary Off
Versions: 1 2 3 4 5 6 7 8 9 10 11 12 13 14

000
FTUS43 KBIS 170500
TAFDIK
TAF
KDIK 170520Z 1706/1806 09009KT P6SM OVC025
     FM170900 11012KT P6SM OVC020
     FM171300 13014KT P6SM SCT020 BKN035 OVC070
     FM171800 15018G26KT P6SM SCT040 BKN070
     FM180300 13014KT P6SM BKN040 BKN070=

USA.gov is the U.S. government's official web portal to all federal, state and local government web resources and services.